ISABELLA DAM (ISB)

Elevation: 2635' · KERN R basin · Operator: US Army Corps of Engineers

Provisional data, subject to change.
Query executed Tuesday at 19:43:25   clock

Select a sensor type for a plot of data.
Note: Reservoir Flows are daily averages.

Earlier

Date RES ELE    STORAGE    RES CHG    TOC STO    ABV TOC    OUTFLOW    INFLOW    FNF    PPT INC    PPTINC4    TEMP MN    TEMP MX    WINDLEN    EVP PAN   
 FEET   AF   AF   AF   AF   CFS   CFS   CFS   INCHES   INCHES   DEG F   DEG F   MILES   INCHES  
10/26/2014 2530.44 46981 -317 191636 -144655 251 105 105 0.00 0.00 12 18 244 0.15
10/27/2014 2530.32 46690 -291 187309 -140619 251 118 118 0.00 0.00 7 22 119 0.14
10/28/2014 2530.18 46351 -339 182982 -136631 276 121 121 0.00 0.00 6 28 110 0.17
10/29/2014 2530.02 45967 -384 178654 -132687 299 121 121 0.00 0.00 7 31 84 0.17
10/30/2014 2529.86 45585 -382 174327 -128742 290 116 116 0.00 0.00 10 30 131 0.20
10/31/2014 2529.79 45418 -167 170000 -124582 157 86 86 0.00 0.00 8 23 107 0.13
11/01/2014 2529.79 45418 0 170000 -124582 129 135 135 0.07 0.23 7 12 170 0.06
11/02/2014 2529.80 45442 24 170000 -124558 128 148 148 0.00 0.05 6 14 141 0.09
11/03/2014 2529.80 45442 0 170000 -124558 128 139 139 0.00 0.00 3 18 119 0.11
11/04/2014 2529.79 45418 -24 170000 -124582 135 136 136 0.00 0.00 3 23 120 0.14
11/05/2014 2529.78 45395 -23 170000 -124605 145 149 149 0.02 0.00 5 26 138 0.17
11/06/2014 2529.76 45347 -48 170000 -124653 145 135 135 0.01 0.00 8 28 81 0.15
11/07/2014 2529.75 45323 -24 170000 -124677 145 147 147 0.00 0.00 7 26 96 0.14
11/08/2014 2529.74 45300 -23 170000 -124700 145 149 149 0.02 0.00 7 30 90 0.16
11/09/2014 2529.71 45229 -71 170000 -124771 145 127 127 0.01 0.00 9 28 141 0.18
11/10/2014 2529.69 45181 -48 170000 -124819 139 131 131 0.00 0.00 8 26 155 0.17
11/11/2014 2529.68 45158 -23 170000 -124842 128 129 129 0.00 0.00 9 20 192 0.13
11/12/2014 2529.68 45158 0 170000 -124842 127 137 137 0.00 0.00 8 18 152 0.11
11/13/2014 2529.66 45111 -47 170000 -124889 124 110 110 0.00 0.00 8 20 195 0.11
11/14/2014 2529.65 45087 -24 170000 -124913 123 124 124 0.00 0.00 11 18 217 0.13
11/15/2014 2529.62 45016 -71 170000 -124984 123 98 98 0.00 0.00 7 17 164 0.10
11/16/2014 2529.66 45111 95 170000 -124889 122 185 185 0.00 0.00 6 18 205 0.16
11/17/2014 2529.66 45111 0 170000 -124889 124 142 142 0.00 0.00 4 20 233 0.20
11/18/2014 2529.64 45063 -48 170000 -124937 123 120 120 0.00 0.00 5 21 268 0.21
11/19/2014 2529.63 45040 -23 170000 -124960 123 123 123 0.00 0.00 7 20 114 0.12
11/20/2014 2529.63 45040 0 170000 -124960 124 133 133 0.00 0.00 6 18 134 0.10
11/21/2014 2529.63 45040 -- 170000 -- 131 139 139 0.00 0.00 7 15 162 0.09
11/22/2014 2529.58 44922 -- 170000 -- 135 85 85 0.00 0.00 4 18 216 0.10
11/23/2014 2529.61 44993 -- 170000 -125007 134 179 179 0.00 0.01 6 17 133 0.09
11/24/2014 2529.61 44993 0 170000 -125007 134 144 144 0.00 0.00 1 20 103 0.11
11/25/2014 -- -- -- -- -- -- -- -- -- 0.00 -- -- -- --

Later | Latest

Warning! This data is preliminary and subject to revision.

Show ISB Map | Plot ISB Data | 1 Month ISB Data | Real-Time ISB Data | ISB Info